Taylor Park, Colorado
Current Conditions -  °F | °C
As of 11:55 PM on Wednesday 22 Oct 2014 (Local Time) from KGUC Reporting Station
Clear Clear  
Wind Chill: 39°   Ceiling: Unl
Heat Index: 39°   Visibility: 10mi
Dew Point: 32°   Wind: 0mph
Humidity: 75%   Direction: NA
Pressure: 30.35"   Gusts: NA
Location:  38.5539°N, 107.09°W
Report Text: KGUC 230555Z AUTO 00000KT 10SM CLR 04/00 A3035 RMK AO1 10120 20040 52014
Loading
Personal Weather Stations






























Interactive Weather Map
Tropical Storm Tracking
New forecast layout! Learn more

10-Day Weather Forecast

Advertisements
Track Severe Weather on mobile